Saugus, California
Current Conditions -  °F | °C
As of 4:56 PM on Tuesday 21 Oct 2014 (Local Time) from KWJF Reporting Station
Clear Clear  
Wind Chill: 70°   Ceiling: Unl
Heat Index: 70°   Visibility: 10mi
Dew Point: 40°   Wind: 24mph
Humidity: 33%   Direction: 280°W
Pressure: 29.88"   Gusts: 35mph
Location:  34.513°N, 118.402°W
Report Text: KWJF 212356Z 28021G30KT 10SM CLR 21/04 A2988 RMK AO2 PK WND 29030/2350 SLP112 T02110044 10244 20189 55005
Loading
Personal Weather Stations






























Interactive Weather Map
Tropical Storm Tracking
New forecast layout! Learn more

10-Day Weather Forecast

Advertisements
Track Severe Weather on mobile